Time;durP1;ratioP1;P1;durP2;ratioP2;P2;SDS_P1;SDS_P2;PMS_P1;PMS_P2;Temp;Humidity;BMP_temperature;BMP_pressure;BME280_temperature;BME280_humidity;BME280_pressure;Samples;Min_cycle;Max_cycle;Signal;HPM_P1;HPM_P2
2021/12/22 00:01:10;;;;;;;36.90;15.52;;;;;;;;;;4879775;29;20116;-88
2021/12/22 00:03:36;;;;;;;36.53;14.63;;;;;;;;;;4879948;29;20032;-87
2021/12/22 00:06:01;;;;;;;40.33;15.90;;;;;;;;;;4878473;29;20029;-89
2021/12/22 00:08:27;;;;;;;36.17;15.15;;;;;;;;;;4879417;29;20089;-87
2021/12/22 00:10:52;;;;;;;34.30;14.68;;;;;;;;;;4879589;29;20481;-86
2021/12/22 00:13:17;;;;;;;36.47;15.70;;;;;;;;;;4878104;29;20404;-86
2021/12/22 00:15:43;;;;;;;36.38;15.57;;;;;;;;;;4879836;29;20025;-87
2021/12/22 00:18:08;;;;;;;37.35;15.75;;;;;;;;;;4878697;29;20473;-85
2021/12/22 00:20:34;;;;;;;34.92;15.70;;;;;;;;;;4878726;29;20391;-89
2021/12/22 00:23:00;;;;;;;33.13;15.27;;;;;;;;;;4879907;29;20029;-87
2021/12/22 00:25:26;;;;;;;37.58;16.15;;;;;;;;;;4880933;29;20025;-85
2021/12/22 00:27:53;;;;;;;37.55;16.17;;;;;;;;;;4880070;29;20488;-86
2021/12/22 00:30:18;;;;;;;40.85;15.75;;;;;;;;;;4881234;29;20025;-87
2021/12/22 00:32:52;;;;;;;39.00;16.30;;;;;;;;;;4879352;29;20545;-87
2021/12/22 00:35:20;;;;;;;35.70;14.25;;;;;;;;;;4880283;29;20100;-87
2021/12/22 00:37:45;;;;;;;37.72;15.13;;;;;;;;;;4879923;29;20025;-84
2021/12/22 00:40:11;;;;;;;36.85;15.75;;;;;;;;;;4880375;29;20445;-85
2021/12/22 00:42:36;;;;;;;37.38;16.33;;;;;;;;;;4881374;29;20073;-85
2021/12/22 00:45:02;;;;;;;40.88;15.93;;;;;;;;;;4883502;29;20013;-86
2021/12/22 00:47:28;;;;;;;36.58;15.90;;;;;;;;;;4882241;29;20020;-85
2021/12/22 00:49:54;;;;;;;38.40;16.38;;;;;;;;;;4882291;29;20101;-85
2021/12/22 00:52:19;;;;;;;39.60;15.98;;;;;;;;;;4881784;29;20028;-84
2021/12/22 00:54:45;;;;;;;39.47;16.17;;;;;;;;;;4882370;29;20069;-85
2021/12/22 00:57:11;;;;;;;40.28;15.82;;;;;;;;;;4880598;29;20029;-86
2021/12/22 00:59:36;;;;;;;39.65;15.52;;;;;;;;;;4881034;29;20037;-85
2021/12/22 01:02:03;;;;;;;42.80;16.60;;;;;;;;;;4879911;29;20017;-87
2021/12/22 01:04:28;;;;;;;35.33;16.17;;;;;;;;;;4880687;29;20021;-87
2021/12/22 01:06:53;;;;;;;38.97;16.15;;;;;;;;;;4883785;29;20013;-86
2021/12/22 01:09:19;;;;;;;40.85;16.83;;;;;;;;;;4882665;29;20468;-86
2021/12/22 01:11:44;;;;;;;37.22;16.15;;;;;;;;;;4882041;29;20502;-85
2021/12/22 01:14:10;;;;;;;36.65;15.85;;;;;;;;;;4881333;29;20385;-86
2021/12/22 01:16:36;;;;;;;36.58;16.30;;;;;;;;;;4880202;29;20108;-86
2021/12/22 01:19:05;;;;;;;38.30;17.27;;;;;;;;;;4880469;29;20061;-84
2021/12/22 01:21:43;;;;;;;33.60;15.80;;;;;;;;;;4881638;29;20039;-83
2021/12/22 01:24:28;;;;;;;37.22;15.52;;;;;;;;;;4882749;29;20084;-86
2021/12/22 01:27:03;;;;;;;40.33;15.85;;;;;;;;;;4883915;29;20119;-84
2021/12/22 01:29:28;;;;;;;37.30;14.93;;;;;;;;;;4883925;29;20108;-84
2021/12/22 01:31:56;;;;;;;39.00;17.00;;;;;;;;;;4887643;29;20504;-83
2021/12/22 01:34:21;;;;;;;39.70;15.87;;;;;;;;;;4889639;29;20068;-85
2021/12/22 01:36:47;;;;;;;37.67;15.73;;;;;;;;;;4894145;29;20029;-85
2021/12/22 01:39:12;;;;;;;33.92;15.25;;;;;;;;;;4892146;29;20115;-84
2021/12/22 01:41:37;;;;;;;35.28;15.10;;;;;;;;;;4899035;29;20042;-85
2021/12/22 01:44:05;;;;;;;30.25;14.40;;;;;;;;;;4900921;29;20114;-85
2021/12/22 01:49:13;;;;;;;31.10;14.07;;;;;;;;;;4900805;29;20006;-83
2021/12/22 01:51:39;;;;;;;33.03;14.75;;;;;;;;;;4902295;29;20092;-83
2021/12/22 01:54:07;;;;;;;37.13;14.43;;;;;;;;;;4902550;29;20013;-85
2021/12/22 01:56:34;;;;;;;33.13;15.10;;;;;;;;;;4902925;29;20009;-82
2021/12/22 01:59:01;;;;;;;31.58;14.00;;;;;;;;;;4901912;29;20041;-84
2021/12/22 02:01:28;;;;;;;29.58;13.10;;;;;;;;;;4903291;29;20077;-83
2021/12/22 02:03:54;;;;;;;31.70;13.48;;;;;;;;;;4902971;29;20057;-84
2021/12/22 02:06:20;;;;;;;33.47;14.68;;;;;;;;;;4902924;29;20062;-84
2021/12/22 02:08:46;;;;;;;34.08;13.68;;;;;;;;;;4902398;29;20016;-84
2021/12/22 02:11:13;;;;;;;32.83;14.68;;;;;;;;;;4907005;29;20009;-83
2021/12/22 02:13:44;;;;;;;30.85;13.80;;;;;;;;;;4906712;29;20009;-83
2021/12/22 02:16:13;;;;;;;29.35;12.77;;;;;;;;;;4907321;29;20013;-84
2021/12/22 02:18:45;;;;;;;30.20;13.52;;;;;;;;;;4906447;29;20037;-85
2021/12/22 02:21:11;;;;;;;28.60;13.60;;;;;;;;;;4907018;29;20006;-84
2021/12/22 02:23:39;;;;;;;24.58;12.70;;;;;;;;;;4906235;29;20029;-84
2021/12/22 02:26:11;;;;;;;33.55;12.48;;;;;;;;;;4906144;29;20092;-86
2021/12/22 02:28:41;;;;;;;29.02;13.07;;;;;;;;;;4906854;29;20033;-86
2021/12/22 02:31:13;;;;;;;26.20;13.05;;;;;;;;;;4906328;29;20021;-84
2021/12/22 02:33:40;;;;;;;28.13;12.13;;;;;;;;;;4906171;29;20018;-85
2021/12/22 02:36:10;;;;;;;25.92;11.55;;;;;;;;;;4906131;29;20099;-82
2021/12/22 02:38:42;;;;;;;28.30;11.80;;;;;;;;;;4905819;29;20055;-83
2021/12/22 02:41:12;;;;;;;26.55;11.25;;;;;;;;;;4906746;29;20005;-86
2021/12/22 02:43:54;;;;;;;26.15;10.60;;;;;;;;;;4906138;29;20061;-84
2021/12/22 02:46:24;;;;;;;24.40;11.38;;;;;;;;;;4906637;29;20017;-83
2021/12/22 02:48:51;;;;;;;25.20;11.80;;;;;;;;;;4905854;29;20057;-84
2021/12/22 02:51:18;;;;;;;27.73;10.65;;;;;;;;;;4906397;29;20013;-84
2021/12/22 02:56:53;;;;;;;22.55;10.15;;;;;;;;;;4906505;29;20053;-83
2021/12/22 02:59:51;;;;;;;21.33;9.55;;;;;;;;;;5050308;23;20040;-83
2021/12/22 03:02:42;;;;;;;19.00;9.27;;;;;;;;;;4906181;29;20005;-87
2021/12/22 03:04:58;;;;;;;22.65;9.23;;;;;;;;;;4906180;29;20056;-81
2021/12/22 03:07:29;;;;;;;19.52;9.23;;;;;;;;;;4906245;29;20007;-82
2021/12/22 03:09:59;;;;;;;21.90;9.43;;;;;;;;;;4905212;29;20021;-82
2021/12/22 03:12:26;;;;;;;22.95;8.10;;;;;;;;;;4905678;29;20017;-83
2021/12/22 03:14:53;;;;;;;20.23;8.15;;;;;;;;;;4905281;29;20022;-83
2021/12/22 03:17:19;;;;;;;16.58;7.72;;;;;;;;;;4904756;29;20065;-83
2021/12/22 03:19:46;;;;;;;18.27;7.25;;;;;;;;;;4903473;29;20096;-82
2021/12/22 03:22:17;;;;;;;21.38;7.53;;;;;;;;;;4904332;29;20064;-81
2021/12/22 03:24:48;;;;;;;13.57;6.53;;;;;;;;;;4905549;29;20017;-81
2021/12/22 03:27:19;;;;;;;16.83;6.80;;;;;;;;;;4904937;29;20042;-82
2021/12/22 03:29:46;;;;;;;13.55;6.22;;;;;;;;;;4904809;29;20017;-81
2021/12/22 03:32:15;;;;;;;15.23;5.63;;;;;;;;;;4904555;29;20009;-83
2021/12/22 03:34:46;;;;;;;11.32;4.72;;;;;;;;;;4904621;29;20013;-82
2021/12/22 03:37:16;;;;;;;9.35;5.10;;;;;;;;;;4905527;29;20020;-81
2021/12/22 03:39:46;;;;;;;13.10;6.15;;;;;;;;;;4904795;29;20078;-81
2021/12/22 03:42:12;;;;;;;12.57;6.03;;;;;;;;;;4904692;29;20032;-82
2021/12/22 03:44:39;;;;;;;8.95;5.43;;;;;;;;;;4904929;29;20013;-83
2021/12/22 03:47:06;;;;;;;9.95;5.00;;;;;;;;;;4904814;29;20024;-84
2021/12/22 03:49:35;;;;;;;9.88;5.30;;;;;;;;;;4905055;29;20009;-82
2021/12/22 03:52:01;;;;;;;14.85;5.72;;;;;;;;;;5050134;23;20015;-84
2021/12/22 03:54:29;;;;;;;11.90;5.68;;;;;;;;;;4904947;29;20118;-83
2021/12/22 03:56:56;;;;;;;11.30;5.55;;;;;;;;;;4904963;29;20028;-82
2021/12/22 04:12:38;;;;;;;13.73;6.35;;;;;;;;;;5606912;23;20100;-84
2021/12/22 04:40:55;;;;;;;11.63;4.67;;;;;;;;;;5472709;23;20135;-84
2021/12/22 04:43:30;;;;;;;12.47;5.53;;;;;;;;;;4899873;29;20039;-85
2021/12/22 04:46:05;;;;;;;15.63;6.10;;;;;;;;;;4899652;29;20033;-84
2021/12/22 04:49:15;;;;;;;12.03;4.77;;;;;;;;;;4903282;29;20027;-84
2021/12/22 05:22:52;;;;;;;18.03;4.77;;;;;;;;;;5461626;23;20268;-83
2021/12/22 05:48:35;;;;;;;14.87;6.87;;;;;;;;;;5608144;23;20033;-82
2021/12/22 05:58:46;;;;;;;18.30;7.03;;;;;;;;;;5453704;23;20110;-85
2021/12/22 06:01:13;;;;;;;18.70;7.83;;;;;;;;;;5511968;23;20030;-84
2021/12/22 06:06:14;;;;;;;13.37;6.93;;;;;;;;;;5494262;23;20033;-83
2021/12/22 06:08:41;;;;;;;14.23;6.93;;;;;;;;;;4906465;29;20009;-83
2021/12/22 06:13:43;;;;;;;19.33;9.63;;;;;;;;;;5500744;23;20040;-85
2021/12/22 06:21:21;;;;;;;18.70;9.27;;;;;;;;;;5130884;23;20061;-84
2021/12/22 06:29:00;;;;;;;18.67;8.83;;;;;;;;;;5933146;23;21312;-84
2021/12/22 06:49:35;;;;;;;18.43;9.93;;;;;;;;;;5924005;23;21249;-84
2021/12/22 06:52:02;;;;;;;21.23;9.97;;;;;;;;;;4881026;29;20052;-84
2021/12/22 06:54:34;;;;;;;20.50;9.50;;;;;;;;;;4867282;29;20025;-84
2021/12/22 07:25:27;;;;;;;18.27;8.03;;;;;;;;;;5815585;23;20093;-84
2021/12/22 07:27:55;;;;;;;17.30;8.13;;;;;;;;;;5118053;23;20051;-84
2021/12/22 07:48:28;;;;;;;18.20;8.83;;;;;;;;;;4998568;23;20081;-84
2021/12/22 07:50:54;;;;;;;;;;;;;;;;;;4900434;29;20079;-84
2021/12/22 07:58:34;;;;;;;18.40;9.43;;;;;;;;;;5835260;23;21230;-85
2021/12/22 08:06:16;;;;;;;22.37;9.87;;;;;;;;;;5592113;23;20039;-85
2021/12/22 08:16:28;;;;;;;27.50;12.63;;;;;;;;;;5811349;23;21254;-84
2021/12/22 08:21:31;;;;;;;22.23;10.67;;;;;;;;;;5839834;23;20016;-86
2021/12/22 08:26:34;;;;;;;20.93;9.90;;;;;;;;;;5856361;23;20227;-83
2021/12/22 08:31:35;;;;;;;21.70;11.07;;;;;;;;;;5078353;23;20040;-85
2021/12/22 08:41:57;;;;;;;22.00;10.93;;;;;;;;;;5468501;23;20049;-84
2021/12/22 08:44:25;;;;;;;24.67;11.63;;;;;;;;;;5446593;23;20089;-85
2021/12/22 08:46:52;;;;;;;22.65;11.68;;;;;;;;;;4902023;29;20112;-85
2021/12/22 08:49:19;;;;;;;22.87;11.07;;;;;;;;;;4900793;29;20442;-83
2021/12/22 08:51:45;;;;;;;24.13;11.27;;;;;;;;;;4902063;29;20029;-85
2021/12/22 08:54:12;;;;;;;26.87;11.67;;;;;;;;;;4903307;29;20021;-85
2021/12/22 08:56:39;;;;;;;25.90;11.83;;;;;;;;;;4903350;29;20033;-84
2021/12/22 08:59:06;;;;;;;23.97;11.47;;;;;;;;;;4903557;29;20045;-85
2021/12/22 09:06:46;;;;;;;28.33;12.40;;;;;;;;;;5488579;23;20086;-83
2021/12/22 09:57:20;;;;;;;30.30;13.13;;;;;;;;;;5183617;23;20056;-85
2021/12/22 10:02:25;;;;;;;29.63;12.57;;;;;;;;;;5033510;23;20068;-83
2021/12/22 10:04:58;;;;;;;28.43;12.87;;;;;;;;;;4899737;29;20059;-84
2021/12/22 10:07:29;;;;;;;29.67;13.40;;;;;;;;;;4902243;29;20021;-83
2021/12/22 10:10:07;;;;;;;28.37;13.07;;;;;;;;;;4901972;29;20036;-82
2021/12/22 10:12:35;;;;;;;28.87;11.63;;;;;;;;;;4901138;29;20080;-83
2021/12/22 10:15:01;;;;;;;29.40;13.10;;;;;;;;;;4901801;29;20012;-83
2021/12/22 10:17:44;;;;;;;28.13;11.70;;;;;;;;;;4900299;29;20025;-82
2021/12/22 10:20:20;;;;;;;31.87;13.63;;;;;;;;;;4899733;29;20025;-82
2021/12/22 10:22:48;;;;;;;31.83;13.53;;;;;;;;;;4899603;29;20081;-83
2021/12/22 10:25:28;;;;;;;32.87;11.63;;;;;;;;;;4899655;29;20251;-84
2021/12/22 10:28:00;;;;;;;31.60;12.20;;;;;;;;;;4901001;29;20006;-82
2021/12/22 10:30:36;;;;;;;29.77;13.60;;;;;;;;;;4902198;29;20024;-88
2021/12/22 10:33:37;;;;;;;29.77;13.20;;;;;;;;;;4904597;29;20033;-82
2021/12/22 10:36:13;;;;;;;30.43;13.03;;;;;;;;;;4903551;29;20007;-84
2021/12/22 10:50:35;;;;;;;25.90;12.13;;;;;;;;;;4866526;29;20037;-82
2021/12/22 10:53:07;;;;;;;33.57;13.37;;;;;;;;;;4833191;29;20026;-83
2021/12/22 10:55:43;;;;;;;30.97;11.50;;;;;;;;;;4832905;29;20060;-83
2021/12/22 10:58:24;;;;;;;30.53;11.17;;;;;;;;;;4848564;29;20025;-84
2021/12/22 11:01:22;;;;;;;26.87;11.70;;;;;;;;;;4848878;29;20057;-84
2021/12/22 11:04:01;;;;;;;28.20;11.70;;;;;;;;;;4823021;29;20086;-85
2021/12/22 11:09:34;;;;;;;31.67;11.60;;;;;;;;;;4847887;29;20046;-84
2021/12/22 11:12:03;;;;;;;27.47;11.90;;;;;;;;;;4848483;29;20180;-83
2021/12/22 11:14:38;;;;;;;27.10;11.90;;;;;;;;;;4848214;29;20056;-83
2021/12/22 11:17:10;;;;;;;29.13;11.60;;;;;;;;;;4833041;29;20019;-83
2021/12/22 11:19:39;;;;;;;24.13;9.43;;;;;;;;;;4848519;29;20026;-83
2021/12/22 11:22:15;;;;;;;24.20;9.90;;;;;;;;;;4833674;29;20090;-83
2021/12/22 11:24:47;;;;;;;25.90;10.47;;;;;;;;;;4848581;29;20026;-83
2021/12/22 11:27:15;;;;;;;26.30;10.23;;;;;;;;;;4874640;29;20097;-84
2021/12/22 11:29:43;;;;;;;25.02;10.98;;;;;;;;;;4884952;29;20089;-83
2021/12/22 11:32:13;;;;;;;23.20;10.48;;;;;;;;;;4884984;29;20086;-83
2021/12/22 11:34:39;;;;;;;25.40;10.33;;;;;;;;;;4884951;29;20014;-84
2021/12/22 11:37:07;;;;;;;22.83;10.47;;;;;;;;;;4885227;29;20045;-83
2021/12/22 11:39:43;;;;;;;22.00;10.20;;;;;;;;;;4884972;29;20097;-83
2021/12/22 11:42:13;;;;;;;22.30;10.27;;;;;;;;;;4885034;29;20037;-82
2021/12/22 11:44:51;;;;;;;24.90;11.13;;;;;;;;;;4883816;29;20060;-83
2021/12/22 11:47:18;;;;;;;23.80;9.63;;;;;;;;;;4884137;29;20036;-81
2021/12/22 11:49:56;;;;;;;25.67;8.73;;;;;;;;;;4883858;29;20021;-84
2021/12/22 11:52:36;;;;;;;25.50;9.93;;;;;;;;;;4883169;29;20115;-82
2021/12/22 11:55:11;;;;;;;21.70;10.13;;;;;;;;;;4880367;29;20025;-84
2021/12/22 11:57:44;;;;;;;23.13;10.50;;;;;;;;;;4885500;29;20026;-84
2021/12/22 12:00:42;;;;;;;;;;;;;;;;;;;;;
2021/12/22 12:06:06;;;;;;;25.83;9.90;;;;;;;;;;5801336;23;20079;-83
2021/12/22 12:08:50;;;;;;;25.90;10.00;;;;;;;;;;4904227;29;20033;-83
2021/12/22 12:22:07;;;;;;;23.58;8.30;;;;;;;;;;4904645;29;20089;-83
2021/12/22 12:24:41;;;;;;;28.15;10.05;;;;;;;;;;4903606;29;20028;-83
2021/12/22 12:42:57;;;;;;;19.17;7.53;;;;;;;;;;5339538;23;20065;-82
2021/12/22 12:45:42;;;;;;;18.10;7.65;;;;;;;;;;4895796;29;20025;-81
2021/12/22 12:48:31;;;;;;;15.40;7.55;;;;;;;;;;4897690;29;20046;-81
2021/12/22 12:51:14;;;;;;;17.05;6.57;;;;;;;;;;4902282;29;20033;-82
2021/12/22 12:53:47;;;;;;;16.10;7.60;;;;;;;;;;4899371;29;20032;-81
2021/12/22 12:56:13;;;;;;;17.38;7.32;;;;;;;;;;4900447;29;20025;-82
2021/12/22 12:58:53;;;;;;;15.65;7.18;;;;;;;;;;4900248;29;20035;-82
2021/12/22 13:01:38;;;;;;;16.08;7.25;;;;;;;;;;4900803;29;20001;-81
2021/12/22 13:04:23;;;;;;;16.88;8.45;;;;;;;;;;4898233;29;20017;-82
2021/12/22 13:06:52;;;;;;;19.77;9.10;;;;;;;;;;4898730;29;20081;-82
2021/12/22 13:09:24;;;;;;;19.40;7.78;;;;;;;;;;4900287;29;20045;-82
2021/12/22 13:11:57;;;;;;;14.48;7.35;;;;;;;;;;4893375;29;20037;-82
2021/12/22 13:17:22;;;;;;;18.05;7.03;;;;;;;;;;4882257;29;20053;-81
2021/12/22 13:19:59;;;;;;;18.42;9.02;;;;;;;;;;4880503;29;20037;-82
2021/12/22 13:22:36;;;;;;;14.73;7.55;;;;;;;;;;4882978;29;20017;-82
2021/12/22 13:25:13;;;;;;;16.63;7.87;;;;;;;;;;4882665;29;20012;-80
2021/12/22 13:27:44;;;;;;;16.65;7.90;;;;;;;;;;4883544;29;20013;-81
2021/12/22 13:30:12;;;;;;;16.42;7.78;;;;;;;;;;4884138;29;20009;-83
2021/12/22 13:35:31;;;;;;;16.75;7.78;;;;;;;;;;5231659;23;20056;-83
2021/12/22 13:37:58;;;;;;;20.05;7.28;;;;;;;;;;4938599;28;20012;-84
2021/12/22 13:45:41;;;;;;;14.07;6.43;;;;;;;;;;5197256;23;20156;-85
2021/12/22 13:51:02;;;;;;;18.02;8.18;;;;;;;;;;5238574;23;20108;-89
2021/12/22 13:56:11;;;;;;;15.32;7.40;;;;;;;;;;5233715;23;20052;-84
2021/12/22 14:11:39;;;;;;;17.55;8.65;;;;;;;;;;5028806;23;20041;-86
2021/12/22 14:14:24;;;;;;;19.33;8.30;;;;;;;;;;4904114;29;20021;-86
2021/12/22 14:17:09;;;;;;;15.75;7.20;;;;;;;;;;4903481;29;20032;-82
2021/12/22 14:19:44;;;;;;;24.30;8.68;;;;;;;;;;4904918;29;20477;-84
2021/12/22 14:22:14;;;;;;;16.38;7.80;;;;;;;;;;4902731;29;20013;-86
2021/12/22 14:24:41;;;;;;;16.45;7.80;;;;;;;;;;4901973;29;20025;-84
2021/12/22 14:27:09;;;;;;;17.27;8.07;;;;;;;;;;4896772;29;20021;-85
2021/12/22 14:29:45;;;;;;;19.88;7.65;;;;;;;;;;4886141;29;20057;-85
2021/12/22 14:32:10;;;;;;;16.38;7.32;;;;;;;;;;4888233;29;20029;-87
2021/12/22 14:34:36;;;;;;;19.65;8.68;;;;;;;;;;4888602;29;20050;-88
2021/12/22 14:37:01;;;;;;;20.85;7.85;;;;;;;;;;4895284;29;20100;-87
2021/12/22 14:39:54;;;;;;;17.77;7.97;;;;;;;;;;4890719;29;20048;-87
2021/12/22 14:42:25;;;;;;;18.15;8.32;;;;;;;;;;4888058;29;20025;-88
2021/12/22 14:44:51;;;;;;;11.82;6.43;;;;;;;;;;4890653;29;20025;-89
2021/12/22 14:47:20;;;;;;;15.07;7.38;;;;;;;;;;4889916;29;20480;-86
2021/12/22 14:49:46;;;;;;;20.50;8.35;;;;;;;;;;4887918;29;20033;-86
2021/12/22 14:52:11;;;;;;;20.48;8.88;;;;;;;;;;4887831;29;20114;-84
2021/12/22 14:54:37;;;;;;;21.10;7.50;;;;;;;;;;4887158;29;20032;-84
2021/12/22 14:57:02;;;;;;;18.15;8.00;;;;;;;;;;4885660;29;20170;-86
2021/12/22 14:59:32;;;;;;;23.35;8.68;;;;;;;;;;4892634;29;20025;-85
2021/12/22 15:01:58;;;;;;;23.77;8.77;;;;;;;;;;4885616;29;20104;-84
2021/12/22 15:04:26;;;;;;;19.48;8.55;;;;;;;;;;4882989;29;20065;-85
2021/12/22 15:06:51;;;;;;;15.90;7.95;;;;;;;;;;4882352;29;20028;-88
2021/12/22 15:09:16;;;;;;;20.40;9.20;;;;;;;;;;4880889;29;20025;-86
2021/12/22 15:11:42;;;;;;;33.47;9.65;;;;;;;;;;4881092;29;20081;-85
2021/12/22 15:14:07;;;;;;;22.27;8.00;;;;;;;;;;4877287;29;20036;-87
2021/12/22 15:16:32;;;;;;;14.35;7.38;;;;;;;;;;4873777;29;20033;-89
2021/12/22 15:18:59;;;;;;;20.52;8.27;;;;;;;;;;4875773;29;20025;-86
2021/12/22 15:21:25;;;;;;;15.63;7.05;;;;;;;;;;4875350;29;20119;-86
2021/12/22 15:23:51;;;;;;;32.30;12.55;;;;;;;;;;4878754;29;20053;-87
2021/12/22 15:26:19;;;;;;;19.52;9.27;;;;;;;;;;4869738;29;20048;-87
2021/12/22 15:28:48;;;;;;;24.23;8.55;;;;;;;;;;4862654;29;20045;-86
2021/12/22 15:31:14;;;;;;;20.65;8.35;;;;;;;;;;4861869;29;20189;-87
2021/12/22 15:33:39;;;;;;;20.85;8.65;;;;;;;;;;4860068;29;20030;-87
2021/12/22 15:36:05;;;;;;;22.33;7.78;;;;;;;;;;4861349;29;20667;-85
2021/12/22 15:38:33;;;;;;;17.02;7.80;;;;;;;;;;4879740;29;20032;-89
2021/12/22 15:40:59;;;;;;;18.13;8.63;;;;;;;;;;4879639;29;20112;-86
2021/12/22 15:43:24;;;;;;;21.02;8.68;;;;;;;;;;4876186;29;20057;-83
2021/12/22 15:45:49;;;;;;;18.02;8.43;;;;;;;;;;4868713;29;20032;-87
2021/12/22 15:48:16;;;;;;;22.83;8.15;;;;;;;;;;4875665;29;20089;-86
2021/12/22 15:50:44;;;;;;;18.30;7.82;;;;;;;;;;4870176;29;20036;-84
2021/12/22 15:53:09;;;;;;;23.23;10.00;;;;;;;;;;4867599;29;20104;-84
2021/12/22 15:55:35;;;;;;;23.30;8.98;;;;;;;;;;4871226;29;20859;-85
2021/12/22 15:58:03;;;;;;;18.70;9.05;;;;;;;;;;4873414;29;20029;-83
2021/12/22 16:00:29;;;;;;;;;;;;;;;;;;4868370;29;20471;-83
2021/12/22 16:02:55;;;;;;;22.95;9.10;;;;;;;;;;4865901;29;20002;-82
2021/12/22 21:16:19;;;;;;;15.33;7.27;;;;;;;;;;510981;27;20307;-85
